createdAt,value
2018-06-23T00:01:04.431Z,1.25
2018-06-23T00:03:32.652Z,1.07
2018-06-23T00:06:00.884Z,1.40
2018-06-23T00:08:29.446Z,1.00
2018-06-23T00:10:57.758Z,0.98
2018-06-23T00:13:26.053Z,1.10
2018-06-23T00:15:54.425Z,1.00
2018-06-23T00:18:22.732Z,1.20
2018-06-23T00:20:50.942Z,0.80
2018-06-23T00:23:19.928Z,1.10
2018-06-23T00:25:54.702Z,1.00
2018-06-23T00:28:23.027Z,0.90
2018-06-23T00:30:51.258Z,1.10
2018-06-23T00:33:19.248Z,0.90
2018-06-23T00:35:47.514Z,0.88
2018-06-23T00:38:15.854Z,1.07
2018-06-23T00:40:44.103Z,1.10
2018-06-23T00:43:13.002Z,0.90
2018-06-23T00:45:41.280Z,1.10
2018-06-23T00:48:09.508Z,1.00
2018-06-23T00:50:37.797Z,0.82
2018-06-23T00:53:06.062Z,0.90
2018-06-23T00:55:34.286Z,0.90
2018-06-23T00:58:02.627Z,0.85
2018-06-23T01:00:30.871Z,1.15
2018-06-23T01:02:59.168Z,1.20
2018-06-23T01:05:28.623Z,0.78
2018-06-23T01:07:56.871Z,1.00
2018-06-23T01:10:25.181Z,0.98
2018-06-23T01:12:53.620Z,0.90
2018-06-23T01:15:21.838Z,0.80
2018-06-23T01:17:50.059Z,0.90
2018-06-23T01:20:18.699Z,0.80
2018-06-23T01:22:46.933Z,0.80
2018-06-23T01:25:15.146Z,0.80
2018-06-23T01:27:44.546Z,0.88
2018-06-23T01:30:12.759Z,0.85
2018-06-23T01:32:40.981Z,1.07
2018-06-23T01:35:13.366Z,0.80
2018-06-23T01:37:41.674Z,0.75
2018-06-23T01:40:10.002Z,0.75
2018-06-23T01:42:38.297Z,0.70
2018-06-23T01:45:06.533Z,0.88
2018-06-23T01:47:34.822Z,0.82
2018-06-23T01:50:04.262Z,0.90
2018-06-23T01:52:32.483Z,0.80
2018-06-23T01:55:00.469Z,0.70
2018-06-23T01:57:28.805Z,0.72
2018-06-23T01:59:57.113Z,0.90
2018-06-23T02:02:25.343Z,0.60
2018-06-23T02:04:54.128Z,0.93
2018-06-23T02:07:22.383Z,0.80
2018-06-23T02:09:50.600Z,0.60
2018-06-23T02:12:19.365Z,0.53
2018-06-23T02:15:25.086Z,0.80
2018-06-23T02:17:59.133Z,0.95
2018-06-23T02:20:32.830Z,0.90
2018-06-23T02:23:06.743Z,0.68
2018-06-23T02:25:40.361Z,0.75
2018-06-23T02:28:15.387Z,0.65
2018-06-23T02:30:48.868Z,0.70
2018-06-23T02:33:22.656Z,0.80
2018-06-23T02:35:50.898Z,0.90
2018-06-23T02:38:19.125Z,0.70
2018-06-23T02:40:47.381Z,0.60
2018-06-23T02:43:15.698Z,1.00
2018-06-23T02:45:44.077Z,0.70
2018-06-23T02:48:14.287Z,0.80
2018-06-23T02:50:42.506Z,0.70
2018-06-23T02:53:10.738Z,0.72
2018-06-23T02:55:39.438Z,0.70
2018-06-23T02:58:07.664Z,0.60
2018-06-23T03:00:35.871Z,0.70
2018-06-23T03:03:04.453Z,0.70
2018-06-23T03:05:32.678Z,0.60
2018-06-23T03:08:00.918Z,0.70
2018-06-23T03:10:29.495Z,0.78
2018-06-23T03:12:57.807Z,0.65
2018-06-23T03:15:26.087Z,0.70
2018-06-23T03:17:54.429Z,0.60
2018-06-23T03:20:22.641Z,0.82
2018-06-23T03:22:50.871Z,0.75
2018-06-23T03:25:20.078Z,0.50
2018-06-23T03:27:52.169Z,0.60
2018-06-23T03:30:21.105Z,0.68
2018-06-23T03:32:49.324Z,0.65
2018-06-23T03:35:17.537Z,0.70
2018-06-23T03:37:45.890Z,0.62
2018-06-23T03:40:14.118Z,0.60
2018-06-23T03:42:42.326Z,0.50
2018-06-23T03:45:10.663Z,0.68
2018-06-23T03:47:38.999Z,0.68
2018-06-23T03:50:07.241Z,0.70
2018-06-23T03:52:36.449Z,0.60
2018-06-23T03:55:04.721Z,0.62
2018-06-23T03:57:32.949Z,0.60
2018-06-23T04:00:01.189Z,0.55
2018-06-23T04:02:29.405Z,0.65
2018-06-23T04:04:57.443Z,0.60
2018-06-23T04:07:25.698Z,0.50
2018-06-23T04:09:53.917Z,0.50
2018-06-23T04:12:22.202Z,0.60
2018-06-23T04:14:51.027Z,0.70
2018-06-23T04:17:19.241Z,0.60
2018-06-23T04:19:47.487Z,0.50
2018-06-23T04:22:15.785Z,0.45
2018-06-23T04:24:44.010Z,0.55
2018-06-23T04:27:12.315Z,0.40
2018-06-23T04:29:41.666Z,0.53
2018-06-23T04:32:09.626Z,0.60
2018-06-23T04:34:37.841Z,0.70
2018-06-23T04:37:07.688Z,0.70
2018-06-23T04:39:36.137Z,0.60
2018-06-23T04:42:04.374Z,0.60
2018-06-23T04:44:32.919Z,0.60
2018-06-23T04:47:01.143Z,0.60
2018-06-23T04:49:29.370Z,0.53
2018-06-23T04:51:58.685Z,0.80
2018-06-23T04:54:26.918Z,0.45
2018-06-23T04:56:55.137Z,0.53
2018-06-23T04:59:23.614Z,0.70
2018-06-23T05:01:52.368Z,0.50
2018-06-23T05:04:20.584Z,0.65
2018-06-23T05:06:49.469Z,0.62
2018-06-23T05:09:17.691Z,0.50
2018-06-23T05:11:45.663Z,0.60
2018-06-23T05:14:14.513Z,0.50
2018-06-23T05:16:42.738Z,0.75
2018-06-23T05:19:11.026Z,0.57
2018-06-23T05:21:39.537Z,0.55
2018-06-23T05:24:07.754Z,0.50
2018-06-23T05:26:36.038Z,0.57
2018-06-23T05:29:04.675Z,0.55
2018-06-23T05:31:33.549Z,0.50
2018-06-23T05:34:01.860Z,0.53
2018-06-23T05:36:30.099Z,0.50
2018-06-23T05:38:58.310Z,0.40
2018-06-23T05:41:26.590Z,0.50
2018-06-23T05:43:55.087Z,0.60
2018-06-23T05:46:23.319Z,0.50
2018-06-23T05:48:51.819Z,0.50
2018-06-23T05:51:20.138Z,0.40
2018-06-23T05:53:48.457Z,0.50
2018-06-23T05:56:17.362Z,0.50
2018-06-23T05:58:45.582Z,0.50
2018-06-23T06:01:13.878Z,0.45
2018-06-23T06:03:42.141Z,0.47
2018-06-23T06:06:10.395Z,0.68
2018-06-23T06:08:38.641Z,0.42
2018-06-23T06:11:06.954Z,0.40
2018-06-23T06:13:35.162Z,0.72
2018-06-23T06:16:03.425Z,0.70
2018-06-23T06:18:32.206Z,0.70
2018-06-23T06:21:00.438Z,0.60
2018-06-23T06:23:28.768Z,0.90
2018-06-23T06:25:57.193Z,0.60
2018-06-23T06:28:25.448Z,0.50
2018-06-23T06:30:53.742Z,0.55
2018-06-23T06:33:22.942Z,0.72
2018-06-23T06:35:51.296Z,0.70
2018-06-23T06:38:19.643Z,1.00
2018-06-23T06:40:48.793Z,0.85
2018-06-23T06:43:17.135Z,0.82
2018-06-23T06:45:45.379Z,0.98
2018-06-23T06:48:13.842Z,0.88
2018-06-23T06:50:42.059Z,1.10
2018-06-23T06:53:10.474Z,1.42
2018-06-23T06:55:38.867Z,1.10
2018-06-23T06:58:07.304Z,1.30
2018-06-23T07:00:35.854Z,1.20
2018-06-23T07:03:04.111Z,1.20
2018-06-23T07:05:32.354Z,1.30
2018-06-23T07:08:00.660Z,1.05
2018-06-23T07:10:28.903Z,1.47
2018-06-23T07:12:57.119Z,1.67
2018-06-23T07:15:26.436Z,1.37
2018-06-23T07:17:54.740Z,1.75
2018-06-23T07:20:22.988Z,2.10
2018-06-23T07:22:52.579Z,1.57
2018-06-23T07:25:20.808Z,1.62
2018-06-23T07:27:49.079Z,1.70
2018-06-23T07:30:17.620Z,1.77
2018-06-23T07:32:45.857Z,1.85
2018-06-23T07:35:15.267Z,1.55
2018-06-23T07:37:43.382Z,1.95
2018-06-23T07:40:11.643Z,1.60
2018-06-23T07:42:39.878Z,1.60
2018-06-23T07:45:08.613Z,1.92
2018-06-23T07:47:36.886Z,1.60
2018-06-23T07:50:05.301Z,1.98
2018-06-23T07:52:33.697Z,2.70
2018-06-23T07:55:01.984Z,2.55
2018-06-23T07:57:30.222Z,2.60
2018-06-23T07:59:58.531Z,2.00
2018-06-23T08:02:26.773Z,2.27
2018-06-23T08:04:55.026Z,2.25
2018-06-23T08:07:23.937Z,1.98
2018-06-23T08:09:52.203Z,2.08
2018-06-23T08:12:20.457Z,2.08
2018-06-23T08:14:49.062Z,1.95
2018-06-23T08:17:17.287Z,2.10
2018-06-23T08:19:45.530Z,1.90
2018-06-23T08:22:13.810Z,1.85
2018-06-23T08:24:42.134Z,2.10
2018-06-23T08:27:10.355Z,1.57
2018-06-23T08:29:39.129Z,1.70
2018-06-23T08:32:07.389Z,1.80
2018-06-23T08:34:35.607Z,1.67
2018-06-23T08:37:04.655Z,1.70
2018-06-23T08:39:32.892Z,1.82
2018-06-23T08:42:01.134Z,2.05
2018-06-23T08:44:29.400Z,2.20
2018-06-23T08:46:57.899Z,1.85
2018-06-23T08:49:26.153Z,1.85
2018-06-23T08:51:55.158Z,1.60
2018-06-23T08:54:23.407Z,1.77
2018-06-23T08:56:51.669Z,1.82
2018-06-23T08:59:20.094Z,1.57
2018-06-23T09:01:48.330Z,1.92
2018-06-23T09:04:16.550Z,1.60
2018-06-23T09:06:44.869Z,1.60
2018-06-23T09:09:13.095Z,1.67
2018-06-23T09:11:41.347Z,1.52
2018-06-23T09:14:10.472Z,1.75
2018-06-23T09:16:38.905Z,1.35
2018-06-23T09:19:07.148Z,1.52
2018-06-23T09:21:35.469Z,1.80
2018-06-23T09:24:03.702Z,1.77
2018-06-23T09:26:31.990Z,1.77
2018-06-23T09:29:00.316Z,1.70
2018-06-23T09:31:28.547Z,1.50
2018-06-23T09:33:56.780Z,1.90
2018-06-23T09:36:25.890Z,1.92
2018-06-23T09:38:55.110Z,1.80
2018-06-23T09:41:23.335Z,1.40
2018-06-23T09:43:52.454Z,1.47
2018-06-23T09:46:20.722Z,1.40
2018-06-23T09:48:48.974Z,1.50
2018-06-23T09:51:17.700Z,1.50
2018-06-23T09:53:45.950Z,1.80
2018-06-23T09:56:14.235Z,1.30
2018-06-23T09:58:42.962Z,1.47
2018-06-23T10:01:11.212Z,1.70
2018-06-23T10:03:39.450Z,1.50
2018-06-23T10:06:07.896Z,1.57
2018-06-23T10:08:36.245Z,1.52
2018-06-23T10:11:04.419Z,1.67
2018-06-23T10:13:32.839Z,1.50
2018-06-23T10:16:01.164Z,1.80
2018-06-23T10:18:29.387Z,1.77
2018-06-23T10:20:57.936Z,1.50
2018-06-23T10:23:26.187Z,1.50
2018-06-23T10:25:54.441Z,1.75
2018-06-23T10:28:22.975Z,1.45
2018-06-23T10:30:51.238Z,1.55
2018-06-23T10:33:19.496Z,1.10
2018-06-23T10:35:51.008Z,1.42
2018-06-23T10:38:19.287Z,1.50
2018-06-23T10:40:48.198Z,1.55
2018-06-23T10:43:16.623Z,1.40
2018-06-23T10:45:44.883Z,1.72
2018-06-23T10:48:13.151Z,1.35
2018-06-23T10:50:41.438Z,1.22
2018-06-23T10:53:09.665Z,1.55
2018-06-23T10:55:37.654Z,1.75
2018-06-23T10:58:06.509Z,1.37
2018-06-23T11:00:34.804Z,1.75
2018-06-23T11:03:03.035Z,1.50
2018-06-23T11:05:31.310Z,1.70
2018-06-23T11:07:59.558Z,1.77
2018-06-23T11:10:27.787Z,1.90
2018-06-23T11:12:56.111Z,1.70
2018-06-23T11:15:24.388Z,1.82
2018-06-23T11:17:52.630Z,2.27
2018-06-23T11:20:21.692Z,2.02
2018-06-23T11:22:49.988Z,2.15
2018-06-23T11:25:18.231Z,2.05
2018-06-23T11:27:47.519Z,2.40
2018-06-23T11:30:15.782Z,2.20
2018-06-23T11:32:44.113Z,2.20
2018-06-23T11:35:12.488Z,2.40
2018-06-23T11:37:40.794Z,2.52
2018-06-23T11:40:09.092Z,2.10
2018-06-23T11:42:38.550Z,2.50
2018-06-23T11:45:06.826Z,1.98
2018-06-23T11:47:35.074Z,2.15
2018-06-23T11:50:03.493Z,1.87
2018-06-23T11:52:31.830Z,1.77
2018-06-23T11:55:00.037Z,2.20
2018-06-23T11:57:28.547Z,1.70
2018-06-23T11:59:56.789Z,2.25
2018-06-23T12:02:25.054Z,2.67
2018-06-23T12:04:53.954Z,2.27
2018-06-23T12:07:22.244Z,2.40
2018-06-23T12:09:50.520Z,2.58
2018-06-23T12:12:18.819Z,2.10
2018-06-23T12:14:47.084Z,2.42
2018-06-23T12:17:15.369Z,2.62
2018-06-23T12:19:43.933Z,2.50
2018-06-23T12:22:12.172Z,2.30
2018-06-23T12:24:40.465Z,2.40
2018-06-23T12:27:09.477Z,2.45
2018-06-23T12:29:38.238Z,2.00
2018-06-23T12:32:06.534Z,2.58
2018-06-23T12:34:34.975Z,2.50
2018-06-23T12:37:03.228Z,2.75
2018-06-23T12:39:31.250Z,2.15
2018-06-23T12:41:59.564Z,2.12
2018-06-23T12:44:28.546Z,2.40
2018-06-23T12:46:56.803Z,2.40
2018-06-23T12:49:25.120Z,2.58
2018-06-23T12:51:53.390Z,2.62
2018-06-23T12:54:21.638Z,3.02
2018-06-23T12:56:50.070Z,3.27
2018-06-23T12:59:18.322Z,3.15
2018-06-23T13:01:46.570Z,3.05
2018-06-23T13:04:15.194Z,2.80
2018-06-23T13:06:43.410Z,3.25
2018-06-23T13:09:12.607Z,2.90
2018-06-23T13:11:41.635Z,3.10
2018-06-23T13:14:09.935Z,3.33
2018-06-23T13:16:38.204Z,3.12
2018-06-23T13:19:06.669Z,3.12
2018-06-23T13:21:34.958Z,3.08
2018-06-23T13:24:03.215Z,3.25
2018-06-23T13:26:32.358Z,3.35
2018-06-23T13:29:00.627Z,2.62
2018-06-23T13:31:28.878Z,2.37
2018-06-23T13:33:57.186Z,2.35
2018-06-23T13:36:25.477Z,2.42
2018-06-23T13:38:53.741Z,2.08
2018-06-23T13:41:22.606Z,2.30
2018-06-23T13:43:50.864Z,2.10
2018-06-23T13:46:20.330Z,2.50
2018-06-23T13:48:49.680Z,2.15
2018-06-23T13:51:18.315Z,2.70
2018-06-23T13:53:46.574Z,1.80
2018-06-23T13:56:14.921Z,1.65
2018-06-23T13:58:43.171Z,2.02
2018-06-23T14:01:11.394Z,2.20
2018-06-23T14:03:40.170Z,2.20
2018-06-23T14:06:08.459Z,2.05
2018-06-23T14:08:36.777Z,2.30
2018-06-23T14:11:05.053Z,2.40
2018-06-23T14:13:33.386Z,2.02
2018-06-23T14:16:01.627Z,2.10
2018-06-23T14:18:29.912Z,1.80
2018-06-23T14:20:58.162Z,1.95
2018-06-23T14:23:26.423Z,2.33
2018-06-23T14:25:55.249Z,1.95
2018-06-23T14:28:23.491Z,2.83
2018-06-23T14:30:51.767Z,2.50
2018-06-23T14:33:19.826Z,2.45
2018-06-23T14:35:47.820Z,2.58
2018-06-23T14:38:16.052Z,2.20
2018-06-23T14:40:44.480Z,2.02
2018-06-23T14:43:12.732Z,2.05
2018-06-23T14:45:40.990Z,2.17
2018-06-23T14:48:10.162Z,2.15
2018-06-23T14:50:38.433Z,2.22
2018-06-23T14:53:06.714Z,2.02
2018-06-23T14:55:35.231Z,1.85
2018-06-23T14:58:03.518Z,2.00
2018-06-23T15:00:31.776Z,1.60
2018-06-23T15:03:00.069Z,2.33
2018-06-23T15:05:28.036Z,1.72
2018-06-23T15:08:01.101Z,1.87
2018-06-23T15:10:41.282Z,1.95
2018-06-23T15:13:16.246Z,2.02
2018-06-23T15:15:44.783Z,1.80
2018-06-23T15:18:13.186Z,2.02
2018-06-23T15:20:41.746Z,1.67
2018-06-23T15:23:10.627Z,2.30
2018-06-23T15:25:39.889Z,2.27
2018-06-23T15:28:08.098Z,2.30
2018-06-23T15:30:36.453Z,2.45
2018-06-23T15:33:04.790Z,2.35
2018-06-23T15:35:33.127Z,2.72
2018-06-23T15:38:01.405Z,2.25
2018-06-23T15:40:29.722Z,2.60
2018-06-23T15:42:58.887Z,2.45
2018-06-23T15:45:27.135Z,2.37
2018-06-23T15:47:55.407Z,2.62
2018-06-23T15:50:24.847Z,2.62
2018-06-23T15:52:53.094Z,2.30
2018-06-23T15:55:21.358Z,2.40
2018-06-23T15:57:49.657Z,2.80
2018-06-23T16:00:17.910Z,2.70
2018-06-23T16:02:46.151Z,2.62
2018-06-23T16:05:15.323Z,2.83
2018-06-23T16:07:45.231Z,3.20
2018-06-23T16:10:20.219Z,2.80
2018-06-23T16:12:48.459Z,2.15
2018-06-23T16:15:17.046Z,2.42
2018-06-23T16:17:45.371Z,2.47
2018-06-23T16:20:13.823Z,2.00
2018-06-23T16:22:41.813Z,1.90
2018-06-23T16:25:11.060Z,2.30
2018-06-23T16:27:39.335Z,2.27
2018-06-23T16:30:07.602Z,2.40
2018-06-23T16:32:35.894Z,2.55
2018-06-23T16:35:04.271Z,2.33
2018-06-23T16:37:32.422Z,2.47
2018-06-23T16:40:00.818Z,2.65
2018-06-23T16:42:29.353Z,2.60
2018-06-23T16:44:57.839Z,3.15
2018-06-23T16:47:26.686Z,3.17
2018-06-23T16:49:54.943Z,2.90
2018-06-23T16:52:23.775Z,2.90
2018-06-23T16:54:52.635Z,2.85
2018-06-23T16:57:20.900Z,3.30
2018-06-23T16:59:49.158Z,2.67
2018-06-23T17:02:17.449Z,2.95
2018-06-23T17:04:45.753Z,3.15
2018-06-23T17:07:14.058Z,3.10
2018-06-23T17:09:44.353Z,3.08
2018-06-23T17:12:12.862Z,3.25
2018-06-23T17:14:41.116Z,2.62
2018-06-23T17:17:09.591Z,3.37
2018-06-23T17:19:37.959Z,3.95
2018-06-23T17:22:06.140Z,3.10
2018-06-23T17:24:34.616Z,3.55
2018-06-23T17:27:02.895Z,3.83
2018-06-23T17:29:31.122Z,3.17
2018-06-23T17:32:00.065Z,3.45
2018-06-23T17:34:28.307Z,4.35
2018-06-23T17:36:56.557Z,5.08
2018-06-23T17:39:25.207Z,4.85
2018-06-23T17:41:53.566Z,5.75
2018-06-23T17:44:21.797Z,5.85
2018-06-23T17:46:50.946Z,5.17
2018-06-23T17:49:19.202Z,5.35
2018-06-23T17:51:47.431Z,4.97
2018-06-23T17:54:15.922Z,5.05
2018-06-23T17:56:43.972Z,5.10
2018-06-23T17:59:12.202Z,5.40
2018-06-23T18:01:40.471Z,4.75
2018-06-23T18:04:08.843Z,4.85
2018-06-23T18:06:37.093Z,5.40
2018-06-23T18:09:11.095Z,4.58
2018-06-23T18:11:40.010Z,4.65
2018-06-23T18:14:08.704Z,5.20
2018-06-23T18:16:37.024Z,5.08
2018-06-23T18:19:05.959Z,4.58
2018-06-23T18:21:34.735Z,5.03
2018-06-23T18:24:02.978Z,4.87
2018-06-23T18:26:31.237Z,5.00
2018-06-23T18:29:00.294Z,5.10
2018-06-23T18:31:28.650Z,4.62
2018-06-23T18:33:56.898Z,4.95
2018-06-23T18:36:25.502Z,5.10
2018-06-23T18:38:53.852Z,4.42
2018-06-23T18:41:22.070Z,5.00
2018-06-23T18:43:50.388Z,4.87
2018-06-23T18:46:18.630Z,4.40
2018-06-23T18:48:46.896Z,4.47
2018-06-23T18:51:16.083Z,4.85
2018-06-23T18:53:44.347Z,5.05
2018-06-23T18:56:12.623Z,4.25
2018-06-23T18:58:40.918Z,4.65
2018-06-23T19:01:09.174Z,4.55
2018-06-23T19:03:37.465Z,5.00
2018-06-23T19:06:06.223Z,4.30
2018-06-23T19:08:36.287Z,4.03
2018-06-23T19:11:04.675Z,4.00
2018-06-23T19:13:33.235Z,4.25
2018-06-23T19:16:01.474Z,4.45
2018-06-23T19:18:29.879Z,4.50
2018-06-23T19:20:58.468Z,4.15
2018-06-23T19:23:26.729Z,4.05
2018-06-23T19:25:55.063Z,4.08
2018-06-23T19:28:23.892Z,4.42
2018-06-23T19:30:52.371Z,3.90
2018-06-23T19:33:20.682Z,4.28
2018-06-23T19:35:48.972Z,4.60
2018-06-23T19:38:17.196Z,3.62
2018-06-23T19:40:45.499Z,4.20
2018-06-23T19:43:14.824Z,4.20
2018-06-23T19:45:43.103Z,3.75
2018-06-23T19:48:11.442Z,3.77
2018-06-23T19:50:40.109Z,4.03
2018-06-23T19:53:08.379Z,3.72
2018-06-23T19:55:36.620Z,3.42
2018-06-23T19:58:05.082Z,4.20
2018-06-23T20:00:33.340Z,3.70
2018-06-23T20:03:01.812Z,3.72
2018-06-23T20:05:30.581Z,3.60
2018-06-23T20:07:59.935Z,3.45
2018-06-23T20:10:28.494Z,3.50
2018-06-23T20:12:57.207Z,3.60
2018-06-23T20:15:25.462Z,3.70
2018-06-23T20:17:53.727Z,3.27
2018-06-23T20:20:22.572Z,3.47
2018-06-23T20:22:50.984Z,3.35
2018-06-23T20:25:19.259Z,3.22
2018-06-23T20:27:47.799Z,3.83
2018-06-23T20:30:16.073Z,3.55
2018-06-23T20:32:44.324Z,3.45
2018-06-23T20:35:12.944Z,3.60
2018-06-23T20:37:41.198Z,3.10
2018-06-23T20:40:09.441Z,3.37
2018-06-23T20:42:38.014Z,3.80
2018-06-23T20:45:06.550Z,3.30
2018-06-23T20:47:34.816Z,3.33
2018-06-23T20:50:03.611Z,3.42
2018-06-23T20:52:31.880Z,2.87
2018-06-23T20:55:00.308Z,3.27
2018-06-23T20:57:28.561Z,2.95
2018-06-23T20:59:56.806Z,2.98
2018-06-23T21:02:25.078Z,3.25
2018-06-23T21:04:53.774Z,2.85
2018-06-23T21:07:25.313Z,2.58
2018-06-23T21:09:53.530Z,3.00
2018-06-23T21:12:22.402Z,3.15
2018-06-23T21:14:50.661Z,2.83
2018-06-23T21:17:18.920Z,2.80
2018-06-23T21:19:47.332Z,2.58
2018-06-23T21:22:15.594Z,2.62
2018-06-23T21:24:43.810Z,3.05
2018-06-23T21:27:12.678Z,2.72
2018-06-23T21:29:40.910Z,2.72
2018-06-23T21:32:09.184Z,2.30
2018-06-23T21:34:37.502Z,2.52
2018-06-23T21:37:05.775Z,2.70
2018-06-23T21:39:34.061Z,3.08
2018-06-23T21:42:02.335Z,2.72
2018-06-23T21:44:30.752Z,2.65
2018-06-23T21:46:58.986Z,2.70
2018-06-23T21:49:27.693Z,3.00
2018-06-23T21:51:55.951Z,2.75
2018-06-23T21:54:24.232Z,2.50
2018-06-23T21:56:52.723Z,2.30
2018-06-23T21:59:20.979Z,2.37
2018-06-23T22:01:49.233Z,2.33
2018-06-23T22:04:17.763Z,2.12
2018-06-23T22:06:46.396Z,2.22
2018-06-23T22:09:29.879Z,2.55
2018-06-23T22:11:58.160Z,2.40
2018-06-23T22:14:26.378Z,2.00
2018-06-23T22:16:54.782Z,2.30
2018-06-23T22:19:23.325Z,2.30
2018-06-23T22:21:51.317Z,2.12
2018-06-23T22:24:19.948Z,2.05
2018-06-23T22:26:48.180Z,2.08
2018-06-23T22:29:16.541Z,2.67
2018-06-23T22:31:46.005Z,1.75
2018-06-23T22:34:14.227Z,2.20
2018-06-23T22:36:42.482Z,2.35
2018-06-23T22:39:12.501Z,1.92
2018-06-23T22:41:40.762Z,2.25
2018-06-23T22:44:09.266Z,1.60
2018-06-23T22:46:37.515Z,2.27
2018-06-23T22:49:05.765Z,2.10
2018-06-23T22:51:34.007Z,1.92
2018-06-23T22:54:03.155Z,2.10
2018-06-23T22:56:31.434Z,2.30
2018-06-23T22:58:59.696Z,1.87
2018-06-23T23:01:28.242Z,2.02
2018-06-23T23:03:56.482Z,2.30
2018-06-23T23:06:24.729Z,2.10
2018-06-23T23:08:54.770Z,2.25
2018-06-23T23:11:23.565Z,2.15
2018-06-23T23:13:51.833Z,1.85
2018-06-23T23:16:20.106Z,2.27
2018-06-23T23:18:48.338Z,1.98
2018-06-23T23:21:17.010Z,2.10
2018-06-23T23:23:44.969Z,1.67
2018-06-23T23:26:13.214Z,1.75
2018-06-23T23:28:41.654Z,1.82
2018-06-23T23:31:09.917Z,1.22
2018-06-23T23:33:38.146Z,1.82
2018-06-23T23:36:06.463Z,1.80
2018-06-23T23:38:34.748Z,1.80
2018-06-23T23:41:03.015Z,1.77
2018-06-23T23:43:31.661Z,1.80
2018-06-23T23:45:59.914Z,1.65
2018-06-23T23:48:28.142Z,1.70
2018-06-23T23:50:56.694Z,1.55
2018-06-23T23:53:24.943Z,1.80
2018-06-23T23:55:53.189Z,1.65
2018-06-23T23:58:21.442Z,1.65
